createdAt,value
2019-05-23T00:01:02.131Z,11.55
2019-05-23T00:06:21.001Z,11.51
2019-05-23T00:11:40.698Z,11.48
2019-05-23T00:16:46.403Z,11.46
2019-05-23T00:21:51.638Z,11.43
2019-05-23T00:27:01.210Z,11.35
2019-05-23T00:32:20.011Z,11.37
2019-05-23T00:37:25.513Z,11.27
2019-05-23T00:42:31.885Z,11.25
2019-05-23T00:47:39.866Z,11.22
2019-05-23T00:52:45.518Z,11.20
2019-05-23T00:57:51.665Z,11.25
2019-05-23T01:02:58.251Z,11.09
2019-05-23T01:08:03.966Z,11.09
2019-05-23T01:13:10.588Z,11.19
2019-05-23T01:18:15.944Z,11.07
2019-05-23T01:23:22.638Z,11.06
2019-05-23T01:28:27.989Z,11.07
2019-05-23T01:33:34.873Z,11.09
2019-05-23T01:38:40.303Z,10.99
2019-05-23T01:43:47.826Z,10.93
2019-05-23T01:48:52.695Z,10.86
2019-05-23T01:53:57.638Z,10.94
2019-05-23T01:59:03.033Z,10.88
2019-05-23T02:04:08.422Z,10.70
2019-05-23T02:09:14.995Z,10.77
2019-05-23T02:14:21.391Z,10.69
2019-05-23T02:19:28.271Z,10.62
2019-05-23T02:24:33.401Z,10.63
2019-05-23T02:29:38.232Z,10.49
2019-05-23T02:34:43.997Z,10.46
2019-05-23T02:39:52.401Z,10.55
2019-05-23T02:45:02.189Z,10.47
2019-05-23T02:50:20.803Z,10.35
2019-05-23T02:55:36.087Z,10.31
2019-05-23T03:00:54.120Z,10.28
2019-05-23T03:05:56.919Z,10.17
2019-05-23T03:11:05.209Z,10.20
2019-05-23T03:16:13.377Z,10.21
2019-05-23T03:21:20.363Z,10.28
2019-05-23T03:26:37.411Z,10.31
2019-05-23T03:31:48.078Z,10.19
2019-05-23T03:36:55.808Z,10.13
2019-05-23T03:42:03.227Z,9.92
2019-05-23T03:47:10.423Z,9.89
2019-05-23T03:52:17.024Z,9.92
2019-05-23T03:57:25.792Z,9.90
2019-05-23T04:02:32.064Z,9.75
2019-05-23T04:07:39.654Z,9.72
2019-05-23T04:12:51.082Z,9.57
2019-05-23T04:17:59.303Z,9.56
2019-05-23T04:23:05.966Z,9.44
2019-05-23T04:28:11.251Z,9.31
2019-05-23T04:33:20.033Z,9.34
2019-05-23T04:38:26.766Z,9.28
2019-05-23T04:43:31.993Z,9.11
2019-05-23T04:48:40.000Z,9.14
2019-05-23T04:53:46.482Z,9.31
2019-05-23T04:58:54.939Z,9.21
2019-05-23T05:04:00.842Z,9.11
2019-05-23T05:09:08.967Z,9.25
2019-05-23T05:14:14.377Z,9.31
2019-05-23T05:19:19.697Z,9.44
2019-05-23T05:24:24.579Z,9.59
2019-05-23T05:29:29.472Z,9.58
2019-05-23T05:34:34.674Z,9.78
2019-05-23T05:39:39.670Z,9.81
2019-05-23T05:44:45.209Z,9.85
2019-05-23T05:49:50.708Z,9.91
2019-05-23T05:54:55.679Z,10.08
2019-05-23T06:00:00.512Z,10.13
2019-05-23T06:05:07.881Z,10.29
2019-05-23T06:10:15.350Z,10.28
2019-05-23T06:15:21.117Z,10.44
2019-05-23T06:20:26.933Z,10.54
2019-05-23T06:25:32.069Z,10.50
2019-05-23T06:30:39.083Z,10.77
2019-05-23T06:35:44.838Z,10.84
2019-05-23T06:40:50.297Z,11.10
2019-05-23T06:45:55.209Z,11.11
2019-05-23T06:51:00.045Z,11.25
2019-05-23T06:56:05.784Z,11.45
2019-05-23T07:01:10.737Z,11.47
2019-05-23T07:06:18.525Z,11.55
2019-05-23T07:11:24.022Z,11.51
2019-05-23T07:16:28.988Z,11.60
2019-05-23T07:21:34.528Z,11.66
2019-05-23T07:26:39.819Z,11.95
2019-05-23T07:31:44.750Z,12.16
2019-05-23T07:36:50.008Z,12.20
2019-05-23T07:41:55.163Z,12.31
2019-05-23T07:47:00.172Z,12.46
2019-05-23T07:52:05.092Z,12.56
2019-05-23T07:57:11.652Z,12.51
2019-05-23T08:02:36.055Z,12.77
2019-05-23T08:07:41.844Z,12.91
2019-05-23T08:12:47.361Z,13.16
2019-05-23T08:17:52.323Z,13.27
2019-05-23T08:22:57.349Z,13.46
2019-05-23T08:28:02.826Z,13.09
2019-05-23T08:33:11.177Z,13.63
2019-05-23T08:38:16.097Z,13.61
2019-05-23T08:43:21.076Z,13.87
2019-05-23T08:48:25.925Z,13.89
2019-05-23T08:53:31.109Z,14.07
2019-05-23T08:58:38.219Z,14.23
2019-05-23T09:03:43.325Z,14.15
2019-05-23T09:08:48.544Z,14.60
2019-05-23T09:13:54.229Z,14.43
2019-05-23T09:18:59.159Z,14.18
